Time;durP1;ratioP1;P1;durP2;ratioP2;P2;SDS_P1;SDS_P2;PMS_P1;PMS_P2;Temp;Humidity;BMP_temperature;BMP_pressure;BME280_temperature;BME280_humidity;BME280_pressure;Samples;Min_cycle;Max_cycle;Signal;HPM_P1;HPM_P2
2022/09/02 00:00:51;;;;;;;61.33;50.63;;;25.40;47.80;;;;;;4925191;28;90749;-56
2022/09/02 00:03:17;;;;;;;61.08;50.45;;;25.40;47.90;;;;;;4929667;28;90749;-56
2022/09/02 00:05:42;;;;;;;60.53;50.35;;;25.40;47.90;;;;;;4933764;28;95341;-57
2022/09/02 00:08:09;;;;;;;60.72;50.63;;;25.40;47.90;;;;;;4921837;28;90493;-53
2022/09/02 00:10:38;;;;;;;60.47;50.40;;;25.40;48.00;;;;;;4931980;28;92228;-56
2022/09/02 00:13:06;;;;;;;60.30;50.15;;;25.30;48.10;;;;;;4930368;28;90364;-57
2022/09/02 00:15:32;;;;;;;60.53;50.38;;;25.30;48.10;;;;;;4933258;28;90917;-55
2022/09/02 00:17:59;;;;;;;60.67;50.35;;;25.30;48.10;;;;;;4925783;28;91050;-56
2022/09/02 00:20:27;;;;;;;60.35;50.42;;;25.30;48.10;;;;;;4932592;28;91993;-54
2022/09/02 00:22:52;;;;;;;61.20;50.35;;;25.30;48.70;;;;;;4930684;28;90077;-53
2022/09/02 00:25:18;;;;;;;60.72;50.42;;;25.30;48.20;;;;;;4921285;28;90121;-56
2022/09/02 00:27:44;;;;;;;60.45;50.35;;;25.20;48.20;;;;;;4923118;28;89992;-56
2022/09/02 00:30:10;;;;;;;61.67;50.40;;;25.30;48.30;;;;;;4928623;28;93131;-58
2022/09/02 00:32:36;;;;;;;60.47;50.33;;;25.20;48.30;;;;;;4927766;28;90343;-55
2022/09/02 00:35:02;;;;;;;60.67;50.35;;;25.30;48.30;;;;;;4927246;28;90052;-54
2022/09/02 00:37:27;;;;;;;60.33;50.38;;;25.20;48.30;;;;;;4929695;28;89566;-52
2022/09/02 00:39:54;;;;;;;60.67;50.53;;;25.20;48.30;;;;;;4933254;28;92498;-55
2022/09/02 00:42:21;;;;;;;61.80;50.25;;;25.20;48.40;;;;;;4928463;28;90812;-52
2022/09/02 00:44:48;;;;;;;60.28;50.42;;;25.20;48.40;;;;;;4933023;28;94154;-55
2022/09/02 00:47:17;;;;;;;62.35;50.63;;;25.20;48.40;;;;;;4938582;28;90482;-56
2022/09/02 00:49:53;;;;;;;60.75;50.08;;;25.20;48.60;;;;;;4927156;28;90188;-57
2022/09/02 00:52:36;;;;;;;60.63;50.25;;;25.20;48.60;;;;;;4926637;28;93759;-56
2022/09/02 00:55:08;;;;;;;60.75;50.38;;;25.10;48.60;;;;;;4930848;28;90183;-54
2022/09/02 00:57:41;;;;;;;60.65;50.25;;;25.10;48.60;;;;;;4923105;28;89115;-56
2022/09/02 01:00:16;;;;;;;60.45;50.10;;;25.10;48.70;;;;;;4935652;28;90908;-57
2022/09/02 01:02:41;;;;;;;60.13;50.10;;;25.10;48.70;;;;;;4931058;28;93573;-56
2022/09/02 01:05:11;;;;;;;60.60;50.28;;;25.10;48.80;;;;;;4928919;28;90436;-56
2022/09/02 01:07:38;;;;;;;60.45;50.33;;;25.10;48.80;;;;;;4940247;28;91185;-57
2022/09/02 01:10:07;;;;;;;60.47;50.25;;;25.00;48.80;;;;;;4943702;28;90220;-55
2022/09/02 01:12:34;;;;;;;60.42;50.45;;;25.00;48.80;;;;;;4940688;28;90241;-54
2022/09/02 01:15:00;;;;;;;60.42;50.20;;;25.00;48.90;;;;;;4933374;28;95510;-57
2022/09/02 01:17:26;;;;;;;60.83;50.42;;;25.00;48.90;;;;;;4930310;28;90083;-56
2022/09/02 01:20:00;;;;;;;61.00;50.35;;;25.00;48.90;;;;;;4935312;28;90378;-57
2022/09/02 01:22:29;;;;;;;60.38;50.45;;;24.90;49.00;;;;;;4932056;28;90567;-55
2022/09/02 01:24:59;;;;;;;60.45;50.38;;;25.00;49.10;;;;;;4926870;28;90903;-56
2022/09/02 01:27:26;;;;;;;61.17;50.42;;;24.90;49.10;;;;;;4931664;28;90139;-57
2022/09/02 01:29:54;;;;;;;60.22;50.35;;;24.90;49.30;;;;;;4928170;28;96184;-52
2022/09/02 01:32:21;;;;;;;60.30;50.10;;;24.90;49.10;;;;;;4932067;28;89634;-56
2022/09/02 01:34:47;;;;;;;60.38;50.08;;;24.90;49.20;;;;;;4931934;28;95540;-57
2022/09/02 01:37:13;;;;;;;60.03;50.35;;;24.90;49.20;;;;;;4925757;28;89840;-57
2022/09/02 01:39:39;;;;;;;60.03;50.10;;;24.90;49.20;;;;;;4934394;28;94209;-54
2022/09/02 01:42:04;;;;;;;60.13;50.25;;;24.90;49.30;;;;;;4928758;28;91116;-57
2022/09/02 01:44:30;;;;;;;60.47;50.35;;;24.80;49.30;;;;;;4933908;28;89485;-56
2022/09/02 01:46:56;;;;;;;60.35;50.20;;;24.80;49.30;;;;;;4932937;28;90245;-55
2022/09/02 01:49:22;;;;;;;60.20;50.25;;;24.80;49.40;;;;;;4940180;28;91434;-56
2022/09/02 01:51:52;;;;;;;60.30;50.50;;;24.80;49.40;;;;;;4932657;28;89854;-56
2022/09/02 01:54:17;;;;;;;59.83;50.25;;;24.80;49.40;;;;;;4933865;28;90463;-54
2022/09/02 01:56:44;;;;;;;61.00;50.17;;;24.70;49.50;;;;;;4942583;28;89969;-56
2022/09/02 01:59:16;;;;;;;60.78;50.10;;;24.70;49.60;;;;;;4930467;28;89664;-56
2022/09/02 02:01:43;;;;;;;59.80;50.22;;;24.70;49.60;;;;;;4927193;28;89650;-53
2022/09/02 02:04:10;;;;;;;59.65;50.05;;;24.70;49.60;;;;;;4926647;28;90917;-54
2022/09/02 02:06:40;;;;;;;60.85;50.15;;;24.70;49.50;;;;;;4939173;28;90368;-55
2022/09/02 02:09:05;;;;;;;61.17;50.17;;;24.70;49.60;;;;;;4926324;28;92930;-54
2022/09/02 02:11:31;;;;;;;60.10;50.22;;;24.70;49.70;;;;;;4930762;28;91755;-57
2022/09/02 02:13:57;;;;;;;60.70;50.35;;;24.70;49.60;;;;;;4924290;28;90446;-55
2022/09/02 02:16:22;;;;;;;60.25;49.95;;;24.70;49.60;;;;;;4926628;28;89624;-56
2022/09/02 02:18:48;;;;;;;60.03;50.10;;;24.70;49.70;;;;;;4937152;28;91035;-56
2022/09/02 02:21:14;;;;;;;59.97;50.25;;;24.70;49.80;;;;;;4928660;28;91550;-56
2022/09/02 02:23:40;;;;;;;59.97;50.03;;;24.60;49.80;;;;;;4923174;28;90285;-54
2022/09/02 02:26:05;;;;;;;60.80;50.28;;;24.60;49.80;;;;;;4939320;28;89740;-54
2022/09/02 02:28:31;;;;;;;60.58;50.15;;;24.60;49.80;;;;;;4929491;28;92188;-55
2022/09/02 02:30:58;;;;;;;59.60;49.95;;;24.60;49.80;;;;;;4922137;28;91650;-55
2022/09/02 02:33:23;;;;;;;59.88;49.85;;;24.60;49.80;;;;;;4930152;28;89843;-57
2022/09/02 02:35:49;;;;;;;60.35;50.15;;;24.60;49.80;;;;;;4933548;28;91271;-54
2022/09/02 02:38:14;;;;;;;59.78;49.97;;;24.60;49.80;;;;;;4926396;28;95703;-56
2022/09/02 02:40:40;;;;;;;59.70;50.15;;;24.60;49.90;;;;;;4932308;28;89975;-57
2022/09/02 02:43:06;;;;;;;60.15;50.05;;;24.50;50.00;;;;;;4931141;28;94298;-55
2022/09/02 02:45:31;;;;;;;60.08;50.17;;;24.50;50.00;;;;;;4939063;28;89967;-55
2022/09/02 02:47:57;;;;;;;60.05;50.00;;;24.50;50.00;;;;;;4928057;28;90560;-53
2022/09/02 02:50:24;;;;;;;60.45;50.05;;;24.50;50.10;;;;;;4931541;28;91049;-54
2022/09/02 02:52:53;;;;;;;60.00;50.00;;;24.50;50.00;;;;;;4936399;28;90070;-55
2022/09/02 02:55:19;;;;;;;60.15;50.17;;;24.50;50.00;;;;;;4932597;28;89485;-53
2022/09/02 02:57:45;;;;;;;59.67;50.00;;;24.50;50.10;;;;;;4927775;28;91876;-56
2022/09/02 03:00:23;;;;;;;59.63;50.08;;;24.40;50.20;;;;;;4925146;28;89646;-57
2022/09/02 03:02:49;;;;;;;59.63;49.95;;;24.40;50.20;;;;;;4932908;28;90956;-56
2022/09/02 03:05:16;;;;;;;60.20;49.95;;;24.40;50.20;;;;;;4932085;28;89999;-55
2022/09/02 03:07:42;;;;;;;59.88;50.15;;;24.40;50.20;;;;;;4925930;28;91073;-57
2022/09/02 03:10:10;;;;;;;61.28;50.33;;;24.40;50.30;;;;;;4931229;28;90132;-57
2022/09/02 03:12:37;;;;;;;59.63;49.85;;;24.40;50.30;;;;;;4926974;28;90075;-55
2022/09/02 03:15:04;;;;;;;59.80;50.22;;;24.40;50.40;;;;;;4935424;28;89561;-53
2022/09/02 03:17:30;;;;;;;60.35;50.42;;;24.40;50.30;;;;;;4926541;28;90262;-53
2022/09/02 03:19:58;;;;;;;60.70;50.38;;;24.40;50.40;;;;;;4929552;28;89986;-53
2022/09/02 03:22:27;;;;;;;60.15;50.17;;;24.40;50.30;;;;;;4936493;28;89740;-55
2022/09/02 03:24:53;;;;;;;60.75;50.35;;;24.40;50.40;;;;;;4932985;28;88799;-56
2022/09/02 03:27:19;;;;;;;60.70;50.25;;;24.30;50.40;;;;;;4927863;28;90474;-55
2022/09/02 03:29:44;;;;;;;59.53;50.35;;;24.30;50.60;;;;;;4930347;28;94429;-54
2022/09/02 03:32:10;;;;;;;60.30;50.33;;;24.30;50.60;;;;;;4930257;28;90565;-53
2022/09/02 03:34:36;;;;;;;60.38;50.05;;;24.30;50.60;;;;;;4933405;28;93905;-51
2022/09/02 03:37:02;;;;;;;59.83;50.28;;;24.20;50.60;;;;;;4922619;28;89881;-55
2022/09/02 03:39:28;;;;;;;60.78;50.15;;;24.20;50.50;;;;;;4915992;28;92522;-56
2022/09/02 03:41:53;;;;;;;60.42;50.05;;;24.20;50.50;;;;;;4936842;28;89834;-56
2022/09/02 03:44:19;;;;;;;59.67;50.05;;;24.30;50.60;;;;;;4924451;28;91140;-56
2022/09/02 03:46:45;;;;;;;59.67;49.92;;;24.20;50.60;;;;;;4927446;28;95900;-55
2022/09/02 03:49:10;;;;;;;60.13;50.28;;;24.20;50.50;;;;;;4936439;28;88776;-56
2022/09/02 03:51:40;;;;;;;60.58;50.25;;;24.20;50.60;;;;;;4926083;28;91818;-55
2022/09/02 03:54:06;;;;;;;59.70;50.15;;;24.20;50.60;;;;;;4919849;28;90243;-56
2022/09/02 03:56:32;;;;;;;59.97;50.20;;;24.20;50.60;;;;;;4925517;28;91286;-54
2022/09/02 03:58:58;;;;;;;59.78;50.30;;;24.20;50.60;;;;;;4932677;28;92837;-55
2022/09/02 04:01:25;;;;;;;60.13;50.20;;;24.20;50.70;;;;;;4925858;28;89761;-54
2022/09/02 04:03:52;;;;;;;59.38;49.95;;;24.20;50.80;;;;;;4925337;28;89788;-57
2022/09/02 04:06:20;;;;;;;60.20;49.95;;;24.10;50.80;;;;;;4929567;28;89971;-54
2022/09/02 04:08:46;;;;;;;60.38;50.25;;;24.10;50.80;;;;;;4929005;28;90848;-55
2022/09/02 04:11:17;;;;;;;59.72;50.15;;;24.10;50.80;;;;;;4925164;28;89533;-54
2022/09/02 04:13:44;;;;;;;;;;;24.10;50.90;;;;;;4927019;28;88805;-54
2022/09/02 04:16:17;;;;;;;59.25;49.85;;;24.10;50.90;;;;;;4930288;28;90760;-56
2022/09/02 04:18:43;;;;;;;59.75;50.05;;;24.10;50.90;;;;;;4934031;28;91114;-56
2022/09/02 04:21:10;;;;;;;59.45;49.85;;;24.10;50.90;;;;;;4934330;28;91099;-56
2022/09/02 04:23:36;;;;;;;60.35;50.00;;;24.10;50.90;;;;;;4923988;28;89573;-53
2022/09/02 04:26:08;;;;;;;59.55;49.92;;;24.10;51.00;;;;;;4924090;28;90878;-52
2022/09/02 04:28:34;;;;;;;59.47;49.92;;;24.10;51.00;;;;;;4932366;28;90094;-52
2022/09/02 04:31:07;;;;;;;59.88;50.25;;;24.10;51.00;;;;;;4929604;28;94545;-53
2022/09/02 04:33:33;;;;;;;59.47;50.15;;;24.10;51.00;;;;;;4919528;28;89853;-52
2022/09/02 04:36:02;;;;;;;59.55;50.45;;;24.10;51.00;;;;;;4927082;28;89573;-51
2022/09/02 04:38:28;;;;;;;60.60;50.22;;;24.10;51.10;;;;;;4933742;28;93379;-55
2022/09/02 04:40:53;;;;;;;59.67;50.30;;;24.00;51.00;;;;;;4934560;28;89663;-56
2022/09/02 04:43:19;;;;;;;59.53;50.28;;;24.10;50.80;;;;;;4937625;28;89379;-53
2022/09/02 04:45:45;;;;;;;59.47;50.15;;;24.10;50.80;;;;;;4939661;28;90982;-52
2022/09/02 04:48:11;;;;;;;62.90;50.15;;;24.10;50.80;;;;;;4931117;28;90725;-56
2022/09/02 04:50:38;;;;;;;59.83;50.40;;;24.10;50.90;;;;;;4934383;28;90047;-55
2022/09/02 04:53:05;;;;;;;59.40;50.20;;;24.10;51.00;;;;;;4925714;28;90102;-56
2022/09/02 04:55:31;;;;;;;59.92;50.22;;;24.00;51.10;;;;;;4941809;28;92744;-55
2022/09/02 04:57:57;;;;;;;60.65;50.38;;;24.00;51.20;;;;;;4927529;28;89668;-56
2022/09/02 05:00:24;;;;;;;60.50;50.45;;;24.10;51.30;;;;;;4921857;28;94360;-55
2022/09/02 05:02:49;;;;;;;61.50;50.40;;;24.10;51.20;;;;;;4930792;28;90360;-56
2022/09/02 05:05:15;;;;;;;62.00;52.00;;;24.10;51.20;;;;;;4918903;28;92296;-58
2022/09/02 05:07:41;;;;;;;64.90;52.10;;;23.40;48.90;;;;;;4938173;28;90303;-59
2022/09/02 05:10:07;;;;;;;64.68;51.90;;;22.80;49.20;;;;;;4930874;28;91483;-57
2022/09/02 05:12:35;;;;;;;63.53;51.88;;;22.30;50.70;;;;;;4944242;28;93948;-58
2022/09/02 05:15:01;;;;;;;61.35;51.60;;;21.60;52.40;;;;;;4939441;28;97254;-58
2022/09/02 05:17:30;;;;;;;64.25;51.47;;;21.00;54.10;;;;;;4934720;28;90154;-58
2022/09/02 05:19:56;;;;;;;63.22;51.90;;;20.60;55.40;;;;;;4930696;28;92097;-58
2022/09/02 05:22:22;;;;;;;60.78;51.53;;;20.40;56.00;;;;;;4942547;28;94399;-56
2022/09/02 05:24:48;;;;;;;62.20;51.55;;;20.20;56.70;;;;;;4929191;28;89589;-56
2022/09/02 05:27:15;;;;;;;65.10;51.78;;;20.00;57.40;;;;;;4939581;28;91286;-58
2022/09/02 05:29:41;;;;;;;63.88;51.63;;;19.90;58.00;;;;;;4932821;28;91204;-56
2022/09/02 05:32:07;;;;;;;66.47;51.83;;;19.70;58.80;;;;;;4927296;28;90096;-56
2022/09/02 05:34:34;;;;;;;60.63;51.53;;;19.70;58.70;;;;;;4918541;28;91832;-57
2022/09/02 05:37:01;;;;;;;65.18;51.63;;;19.60;58.90;;;;;;4927090;28;91876;-54
2022/09/02 05:39:27;;;;;;;60.10;51.50;;;19.50;59.30;;;;;;4934942;28;89535;-54
2022/09/02 05:41:53;;;;;;;62.15;51.47;;;19.40;59.50;;;;;;4922166;28;90335;-55
2022/09/02 05:44:19;;;;;;;60.75;52.17;;;19.40;59.70;;;;;;4936010;28;90361;-55
2022/09/02 05:46:44;;;;;;;62.50;51.42;;;19.40;59.80;;;;;;4935161;28;90850;-56
2022/09/02 05:49:16;;;;;;;65.25;51.22;;;19.30;60.00;;;;;;4939915;28;93186;-54
2022/09/02 05:51:54;;;;;;;63.50;51.25;;;19.20;60.70;;;;;;4937765;28;89071;-55
2022/09/02 05:54:29;;;;;;;60.42;51.67;;;19.20;61.20;;;;;;4930572;28;91098;-57
2022/09/02 05:56:57;;;;;;;61.72;51.42;;;19.20;61.10;;;;;;4929304;28;90022;-54
2022/09/02 05:59:25;;;;;;;61.47;51.25;;;19.20;60.90;;;;;;4938423;28;95306;-55
2022/09/02 06:01:52;;;;;;;61.03;51.58;;;19.30;61.10;;;;;;4933445;28;92197;-55
2022/09/02 06:04:19;;;;;;;60.28;51.53;;;19.20;61.40;;;;;;4932773;28;90995;-54
2022/09/02 06:06:45;;;;;;;65.72;51.38;;;19.40;61.10;;;;;;4933131;28;89929;-56
2022/09/02 06:09:14;;;;;;;58.95;51.50;;;19.50;60.60;;;;;;4926114;28;92639;-54
2022/09/02 06:11:44;;;;;;;60.25;51.78;;;19.60;60.30;;;;;;4932776;28;91489;-57
2022/09/02 06:14:12;;;;;;;67.07;53.05;;;19.70;59.90;;;;;;4926538;28;89603;-58
2022/09/02 06:16:38;;;;;;;62.63;51.88;;;19.90;58.90;;;;;;4929776;28;88944;-54
2022/09/02 06:19:04;;;;;;;63.50;52.55;;;20.10;58.60;;;;;;4910107;28;89612;-55
2022/09/02 06:21:34;;;;;;;64.03;52.90;;;20.40;57.70;;;;;;4932562;28;89752;-56
2022/09/02 06:24:00;;;;;;;65.35;53.47;;;20.60;57.70;;;;;;4918935;28;91727;-55
2022/09/02 06:26:27;;;;;;;64.25;52.90;;;20.80;56.40;;;;;;4924060;28;91650;-55
2022/09/02 06:28:53;;;;;;;69.32;52.80;;;20.90;56.40;;;;;;4922287;28;90478;-59
2022/09/02 06:31:21;;;;;;;66.53;53.03;;;20.90;56.20;;;;;;4933270;28;89733;-53
2022/09/02 06:33:51;;;;;;;68.53;53.42;;;21.10;56.20;;;;;;4928240;28;90184;-56
2022/09/02 06:36:18;;;;;;;70.13;52.45;;;21.10;56.10;;;;;;4930801;28;90900;-60
2022/09/02 06:38:45;;;;;;;67.38;52.70;;;21.30;55.70;;;;;;4942066;28;94556;-57
2022/09/02 06:41:14;;;;;;;64.43;52.47;;;21.40;55.30;;;;;;4938002;28;88975;-58
2022/09/02 06:43:40;;;;;;;66.60;53.45;;;21.60;54.80;;;;;;4929269;28;90102;-60
2022/09/02 06:46:06;;;;;;;67.28;52.90;;;21.50;55.60;;;;;;4931822;28;91750;-60
2022/09/02 06:48:33;;;;;;;66.38;53.47;;;21.60;55.20;;;;;;4926069;28;91535;-60
2022/09/02 06:51:00;;;;;;;68.80;52.88;;;21.80;54.80;;;;;;4929367;28;92486;-60
2022/09/02 06:53:25;;;;;;;65.90;52.75;;;21.80;54.50;;;;;;4916653;28;90024;-60
2022/09/02 06:55:51;;;;;;;67.95;52.90;;;21.90;54.20;;;;;;4926552;28;89875;-60
2022/09/02 06:58:17;;;;;;;66.57;52.50;;;22.00;53.90;;;;;;4939632;28;89996;-60
2022/09/02 07:00:44;;;;;;;69.32;52.67;;;22.10;53.80;;;;;;4934874;28;89585;-58
2022/09/02 07:06:01;;;;;;;71.80;53.83;;;22.20;53.40;;;;;;4933504;28;90917;-60
2022/09/02 07:08:27;;;;;;;67.47;53.40;;;22.20;53.60;;;;;;4932095;28;91575;-60
2022/09/02 07:10:53;;;;;;;69.97;53.50;;;22.10;54.10;;;;;;4934324;28;94195;-60
2022/09/02 07:13:19;;;;;;;69.78;54.30;;;22.20;54.00;;;;;;4931552;28;90668;-59
2022/09/02 07:15:45;;;;;;;70.90;53.15;;;22.20;53.90;;;;;;4925475;28;90376;-59
2022/09/02 07:18:11;;;;;;;71.82;54.40;;;22.40;53.80;;;;;;4924002;28;90304;-60
2022/09/02 07:20:37;;;;;;;72.40;52.88;;;22.50;53.60;;;;;;4914109;28;89986;-60
2022/09/02 07:23:03;;;;;;;72.90;53.47;;;22.40;53.60;;;;;;4926229;28;89751;-60
2022/09/02 07:25:29;;;;;;;73.65;53.50;;;22.50;53.40;;;;;;4926466;28;90664;-60
2022/09/02 07:27:55;;;;;;;67.78;53.72;;;22.60;53.50;;;;;;4928306;28;89660;-60
2022/09/02 07:30:21;;;;;;;72.25;54.30;;;22.70;53.40;;;;;;4925679;28;90086;-60
2022/09/02 07:32:47;;;;;;;71.00;54.67;;;22.70;53.20;;;;;;4928976;28;94103;-60
2022/09/02 07:35:12;;;;;;;71.15;53.75;;;22.70;53.50;;;;;;4938093;28;90272;-58
2022/09/02 07:37:38;;;;;;;70.63;53.97;;;22.60;53.60;;;;;;4930893;28;95453;-60
2022/09/02 07:40:06;;;;;;;72.03;53.42;;;22.70;53.20;;;;;;4929935;28;90278;-60
2022/09/02 07:42:33;;;;;;;73.10;53.05;;;22.80;53.50;;;;;;4929044;28;90253;-60
2022/09/02 07:44:58;;;;;;;71.80;53.40;;;22.80;53.60;;;;;;4926636;28;90117;-60
2022/09/02 07:47:24;;;;;;;73.82;53.83;;;22.80;53.50;;;;;;4932903;28;89716;-60
2022/09/02 07:49:50;;;;;;;72.32;53.63;;;22.90;54.00;;;;;;4926925;28;89550;-60
2022/09/02 07:52:15;;;;;;;77.03;53.45;;;22.90;53.30;;;;;;4922127;28;90320;-60
2022/09/02 07:54:41;;;;;;;70.28;53.35;;;23.00;53.30;;;;;;4926784;28;93739;-60
2022/09/02 07:57:07;;;;;;;66.75;53.05;;;23.00;53.50;;;;;;4925067;28;90349;-61
2022/09/02 07:59:33;;;;;;;69.38;53.20;;;23.00;53.20;;;;;;4909883;28;89938;-63
2022/09/02 08:01:59;;;;;;;64.40;53.33;;;23.10;53.30;;;;;;4926284;28;92337;-60
2022/09/02 08:04:25;;;;;;;65.50;52.95;;;23.10;53.10;;;;;;4928883;28;91019;-60
2022/09/02 08:06:52;;;;;;;64.22;52.83;;;23.10;53.00;;;;;;4926404;28;94466;-61
2022/09/02 08:09:18;;;;;;;66.90;52.55;;;23.10;53.60;;;;;;4925878;28;89973;-60
2022/09/02 08:11:47;;;;;;;68.03;53.63;;;23.20;53.70;;;;;;4922881;28;92370;-61
2022/09/02 08:14:16;;;;;;;66.22;52.80;;;23.20;53.20;;;;;;4928681;28;90513;-60
2022/09/02 08:16:43;;;;;;;66.38;52.92;;;23.20;53.20;;;;;;4923750;28;90323;-60
2022/09/02 08:19:10;;;;;;;64.68;53.42;;;23.30;53.40;;;;;;4928301;28;89831;-60
2022/09/02 08:21:36;;;;;;;63.50;52.47;;;23.30;52.90;;;;;;4922274;28;90121;-60
2022/09/02 08:24:02;;;;;;;63.97;52.88;;;23.30;53.30;;;;;;4933424;28;90466;-61
2022/09/02 08:26:28;;;;;;;66.65;53.55;;;23.30;53.60;;;;;;4929839;28;92015;-60
2022/09/02 08:28:55;;;;;;;68.88;53.00;;;23.30;53.20;;;;;;4927068;28;92353;-61
2022/09/02 08:31:21;;;;;;;65.50;53.85;;;23.40;53.40;;;;;;4937727;28;89877;-61
2022/09/02 08:33:46;;;;;;;66.32;53.33;;;23.40;53.00;;;;;;4932698;28;92536;-60
2022/09/02 08:36:14;;;;;;;65.43;53.20;;;23.40;53.30;;;;;;4925991;28;90595;-60
2022/09/02 08:38:41;;;;;;;65.30;53.85;;;23.40;53.40;;;;;;4924904;28;89728;-61
2022/09/02 08:41:25;;;;;;;66.18;53.10;;;23.50;53.20;;;;;;4923155;28;91074;-62
2022/09/02 08:43:56;;;;;;;66.38;52.97;;;23.50;53.20;;;;;;4929824;28;92932;-61
2022/09/02 08:46:25;;;;;;;65.30;52.92;;;23.60;53.70;;;;;;4924385;28;90286;-61
2022/09/02 08:49:03;;;;;;;68.40;53.85;;;23.70;53.70;;;;;;4922726;28;89689;-58
2022/09/02 08:51:44;;;;;;;68.57;53.85;;;23.70;53.20;;;;;;4926846;28;91245;-62
2022/09/02 08:54:36;;;;;;;65.90;53.17;;;23.70;53.90;;;;;;4921275;28;91789;-58
2022/09/02 08:57:02;;;;;;;66.78;54.08;;;23.80;53.20;;;;;;4925469;28;89763;-56
2022/09/02 08:59:30;;;;;;;68.22;53.85;;;23.90;52.90;;;;;;4933611;28;90542;-55
2022/09/02 09:02:15;;;;;;;66.72;54.08;;;24.00;52.50;;;;;;4933946;28;90829;-59
2022/09/02 09:05:19;;;;;;;67.13;52.92;;;24.00;51.90;;;;;;4925951;28;90456;-54
2022/09/02 09:08:06;;;;;;;67.47;52.80;;;23.90;52.40;;;;;;4933722;28;92017;-57
2022/09/02 09:11:24;;;;;;;67.13;54.15;;;24.00;52.70;;;;;;4931736;28;89829;-54
2022/09/02 09:14:00;;;;;;;67.47;53.13;;;24.10;52.80;;;;;;4925367;28;90618;-60
2022/09/02 09:16:44;;;;;;;72.20;54.42;;;24.20;52.80;;;;;;4941879;28;92269;-57
2022/09/02 09:19:15;;;;;;;73.78;53.70;;;24.20;51.80;;;;;;4937923;28;92900;-54
2022/09/02 09:21:42;;;;;;;67.38;53.25;;;24.30;51.90;;;;;;4935743;28;89965;-59
2022/09/02 09:24:19;;;;;;;65.88;53.33;;;24.30;52.00;;;;;;4926563;28;94892;-57
2022/09/02 09:26:46;;;;;;;69.28;53.03;;;24.40;52.20;;;;;;4952040;28;92325;-58
2022/09/02 09:29:12;;;;;;;69.88;53.40;;;24.30;52.20;;;;;;4935705;28;90057;-60
2022/09/02 09:31:39;;;;;;;67.65;54.22;;;24.50;52.10;;;;;;4936359;28;89843;-58
2022/09/02 09:34:08;;;;;;;71.45;53.42;;;24.50;51.70;;;;;;4935863;28;91892;-58
2022/09/02 09:36:53;;;;;;;74.65;53.63;;;24.50;52.10;;;;;;4945456;28;89490;-57
2022/09/02 09:39:19;;;;;;;66.75;53.03;;;24.60;52.20;;;;;;4933986;28;89780;-55
2022/09/02 09:41:46;;;;;;;70.30;53.65;;;24.70;52.40;;;;;;4941929;28;90062;-58
2022/09/02 09:44:28;;;;;;;72.43;53.80;;;24.80;51.60;;;;;;4946386;28;91079;-56
2022/09/02 09:47:01;;;;;;;71.75;52.97;;;24.80;51.50;;;;;;4930748;28;91056;-53
2022/09/02 09:49:27;;;;;;;72.13;53.30;;;24.80;52.10;;;;;;4931372;28;89981;-58
2022/09/02 09:51:55;;;;;;;71.85;53.63;;;24.90;51.70;;;;;;4931867;28;89934;-57
2022/09/02 09:54:25;;;;;;;68.72;52.97;;;25.00;51.40;;;;;;4925587;28;91603;-54
2022/09/02 09:56:52;;;;;;;74.88;53.83;;;25.00;51.50;;;;;;4932741;28;90986;-55
2022/09/02 09:59:48;;;;;;;72.50;53.55;;;25.00;51.70;;;;;;4926512;28;90248;-57
2022/09/02 10:02:23;;;;;;;72.40;53.25;;;25.10;52.30;;;;;;4935939;28;89451;-58
2022/09/02 10:04:51;;;;;;;67.97;53.28;;;25.10;52.70;;;;;;4931031;28;89534;-62
2022/09/02 10:07:38;;;;;;;73.38;53.75;;;25.20;52.50;;;;;;4908464;28;90795;-59
2022/09/02 10:10:22;;;;;;;73.47;53.40;;;25.20;51.30;;;;;;4937137;28;90840;-55
2022/09/02 10:12:51;;;;;;;72.80;53.15;;;25.30;51.80;;;;;;4936681;28;89606;-54
2022/09/02 10:15:48;;;;;;;69.72;53.75;;;25.20;51.80;;;;;;4925750;28;90217;-53
2022/09/02 10:18:41;;;;;;;78.10;53.92;;;25.20;51.50;;;;;;4935867;28;89951;-50
2022/09/02 10:21:55;;;;;;;70.78;53.72;;;25.20;50.40;;;;;;4935331;28;90268;-60
2022/09/02 10:24:42;;;;;;;71.95;53.83;;;25.30;51.80;;;;;;4948274;28;95417;-60
2022/09/02 10:27:13;;;;;;;68.85;53.55;;;25.30;52.60;;;;;;4942348;28;90441;-60
2022/09/02 10:30:04;;;;;;;69.90;53.58;;;25.30;53.00;;;;;;4945562;28;89886;-60
2022/09/02 10:33:08;;;;;;;98.70;55.00;;;25.30;53.20;;;;;;4941379;28;91101;-60
2022/09/02 10:35:53;;;;;;;68.95;53.92;;;25.40;52.00;;;;;;4939514;28;89477;-60
2022/09/02 10:38:36;;;;;;;71.80;53.70;;;25.30;51.50;;;;;;4939656;28;91179;-60
2022/09/02 10:41:30;;;;;;;69.97;53.78;;;25.40;50.40;;;;;;4933284;28;89689;-60
2022/09/02 10:44:22;;;;;;;67.20;53.45;;;25.30;51.40;;;;;;4935840;28;89491;-60
2022/09/02 10:47:03;;;;;;;69.07;53.97;;;25.40;52.40;;;;;;4937012;28;90290;-60
2022/09/02 10:49:51;;;;;;;68.90;53.42;;;25.40;51.90;;;;;;4940303;28;89962;-59
2022/09/02 10:52:37;;;;;;;66.68;53.47;;;25.40;51.70;;;;;;4958229;28;90136;-60
2022/09/02 10:55:33;;;;;;;69.57;53.20;;;25.40;51.60;;;;;;4937120;28;89855;-59
2022/09/02 10:58:07;;;;;;;67.00;53.75;;;25.40;51.40;;;;;;4937498;28;89693;-55
2022/09/02 11:00:39;;;;;;;69.60;53.53;;;25.50;51.30;;;;;;4935865;28;94479;-56
2022/09/02 11:03:23;;;;;;;68.47;54.08;;;25.60;51.70;;;;;;4924346;28;95270;-55
2022/09/02 11:06:14;;;;;;;69.50;53.67;;;25.60;49.50;;;;;;4925482;28;91704;-57
2022/09/02 11:09:20;;;;;;;68.00;53.47;;;25.60;50.70;;;;;;4931016;28;90027;-55
2022/09/02 11:12:03;;;;;;;69.30;53.65;;;25.60;51.40;;;;;;4928356;28;90288;-56
2022/09/02 11:14:49;;;;;;;67.03;53.63;;;25.70;51.30;;;;;;4925258;28;90513;-57
2022/09/02 11:17:30;;;;;;;69.40;53.53;;;25.70;51.40;;;;;;4930119;28;91964;-60
2022/09/02 11:20:22;;;;;;;67.35;53.72;;;25.80;51.10;;;;;;4929139;28;91115;-56
2022/09/02 11:22:47;;;;;;;68.07;53.72;;;25.80;50.40;;;;;;4926049;28;89879;-55
2022/09/02 11:25:52;;;;;;;67.63;53.17;;;25.80;50.60;;;;;;4921086;28;90695;-53
2022/09/02 11:28:29;;;;;;;66.78;53.65;;;25.80;50.80;;;;;;4891099;28;91869;-57
2022/09/02 11:31:11;;;;;;;66.63;53.60;;;25.90;50.60;;;;;;4900226;28;93622;-55
2022/09/02 11:33:53;;;;;;;72.28;53.92;;;26.00;51.20;;;;;;4927590;28;91817;-55
2022/09/02 11:36:19;;;;;;;70.65;53.53;;;26.00;50.10;;;;;;4925317;28;90050;-57
2022/09/02 11:38:56;;;;;;;68.43;53.42;;;26.10;50.20;;;;;;4909806;28;90124;-57
2022/09/02 11:41:34;;;;;;;69.38;53.72;;;26.10;50.00;;;;;;4917227;28;91583;-58
2022/09/02 11:44:39;;;;;;;67.82;53.35;;;26.10;50.20;;;;;;4921197;28;90585;-57
2022/09/02 11:47:30;;;;;;;67.85;53.60;;;26.20;50.10;;;;;;4939856;28;91346;-55
2022/09/02 11:50:04;;;;;;;68.85;53.67;;;26.20;50.60;;;;;;4937262;28;90163;-54
2022/09/02 11:53:00;;;;;;;66.97;53.33;;;26.20;50.80;;;;;;4933318;28;91609;-54
2022/09/02 11:55:35;;;;;;;66.18;53.63;;;26.20;50.80;;;;;;4930085;28;90508;-54
2022/09/02 11:58:01;;;;;;;70.90;53.95;;;26.20;50.70;;;;;;4926053;28;91268;-54
2022/09/02 12:00:30;;;;;;;68.07;53.67;;;26.20;50.80;;;;;;4926908;28;97149;-55
2022/09/02 12:03:05;;;;;;;71.57;53.42;;;26.20;52.10;;;;;;4934158;28;90304;-60
2022/09/02 12:05:31;;;;;;;69.78;53.72;;;26.20;50.80;;;;;;4945818;28;90148;-58
2022/09/02 12:08:10;;;;;;;67.75;53.83;;;26.30;51.20;;;;;;4934654;28;89676;-60
2022/09/02 12:10:46;;;;;;;68.82;54.15;;;26.30;51.00;;;;;;4932607;28;92203;-60
2022/09/02 12:13:47;;;;;;;68.18;54.05;;;26.40;51.40;;;;;;4930114;28;94538;-60
2022/09/02 12:16:18;;;;;;;;;;;26.30;49.90;;;;;;4932920;28;89845;-60
2022/09/02 12:18:54;;;;;;;68.63;53.63;;;26.30;50.60;;;;;;4937411;28;88756;-60
2022/09/02 12:21:30;;;;;;;68.75;53.83;;;26.30;50.00;;;;;;4924634;28;89928;-60
2022/09/02 12:23:56;;;;;;;66.18;53.92;;;26.40;50.10;;;;;;4938074;28;89951;-60
2022/09/02 12:26:21;;;;;;;68.22;53.88;;;26.40;49.60;;;;;;4927982;28;91393;-55
2022/09/02 12:28:49;;;;;;;72.07;53.90;;;26.30;49.60;;;;;;4926474;28;90250;-54
2022/09/02 12:31:17;;;;;;;67.45;53.83;;;26.40;49.60;;;;;;4922136;28;90917;-57
2022/09/02 12:33:48;;;;;;;67.47;54.00;;;26.40;50.30;;;;;;4931125;28;89968;-50
2022/09/02 12:36:36;;;;;;;66.72;54.17;;;26.50;50.70;;;;;;4935686;28;90091;-59
2022/09/02 12:39:20;;;;;;;66.25;53.58;;;26.50;50.80;;;;;;4934036;28;89833;-58
2022/09/02 12:41:55;;;;;;;68.95;53.80;;;26.50;50.40;;;;;;4936336;28;91016;-54
2022/09/02 12:44:44;;;;;;;68.13;53.58;;;26.60;50.50;;;;;;4940649;28;89283;-59
2022/09/02 12:47:10;;;;;;;69.78;53.78;;;26.50;49.90;;;;;;4932881;28;90534;-59
2022/09/02 12:49:44;;;;;;;67.30;54.17;;;26.50;49.20;;;;;;4925022;28;90833;-57